Endoka, Arkansas
Current Conditions -  °F | °C
As of 4:49 AM on Sunday 26 Oct 2014 (Local Time) from KGLH Reporting Station
Haze Haze  
Wind Chill: 57°   Ceiling: Unl
Heat Index: 57°   Visibility: 2.5mi
Dew Point: 57°   Wind: 5mph
Humidity: 100%   Direction: 180°S
Pressure: 30.02"   Gusts: NA
Location:  33.1306°N, 91.2896°W
Report Text: KGLH 260949Z AUTO 18004KT 2 1/2SM BR CLR 14/14 A3002 RMK AO2
Loading
Personal Weather Stations






























Interactive Weather Map
Tropical Storm Tracking
New forecast layout! Learn more

10-Day Weather Forecast

Advertisements
Track Severe Weather on mobile